sensor_id;sensor_type;location;lat;lon;timestamp;pressure;altitude;pressure_sealevel;temperature;humidity
24558;BME280;12726;49.148;8.582;2023-11-21T00:01:16;99744.16;;;8.96;100.00
24558;BME280;12726;49.148;8.582;2023-11-21T00:04:01;99742.34;;;8.90;100.00
24558;BME280;12726;49.148;8.582;2023-11-21T00:06:46;99739.03;;;8.94;100.00
24558;BME280;12726;49.148;8.582;2023-11-21T00:09:33;99747.34;;;8.86;100.00
24558;BME280;12726;49.148;8.582;2023-11-21T00:12:20;99750.25;;;8.85;100.00
24558;BME280;12726;49.148;8.582;2023-11-21T00:15:06;99752.72;;;8.86;100.00
24558;BME280;12726;49.148;8.582;2023-11-21T00:17:53;99748.16;;;8.87;100.00
24558;BME280;12726;49.148;8.582;2023-11-21T00:20:39;99746.53;;;8.86;100.00
24558;BME280;12726;49.148;8.582;2023-11-21T00:23:24;99747.09;;;8.94;100.00
24558;BME280;12726;49.148;8.582;2023-11-21T00:26:11;99749.56;;;8.89;100.00
24558;BME280;12726;49.148;8.582;2023-11-21T00:28:56;99741.94;;;8.93;100.00
24558;BME280;12726;49.148;8.582;2023-11-21T00:31:42;99751.56;;;9.00;100.00
24558;BME280;12726;49.148;8.582;2023-11-21T00:34:27;99750.69;;;9.07;100.00
24558;BME280;12726;49.148;8.582;2023-11-21T00:37:12;99748.91;;;9.00;100.00
24558;BME280;12726;49.148;8.582;2023-11-21T00:39:58;99750.09;;;9.04;100.00
24558;BME280;12726;49.148;8.582;2023-11-21T00:42:44;99740.84;;;9.00;100.00
24558;BME280;12726;49.148;8.582;2023-11-21T00:45:30;99747.25;;;8.99;100.00
24558;BME280;12726;49.148;8.582;2023-11-21T00:48:16;99750.31;;;9.03;100.00
24558;BME280;12726;49.148;8.582;2023-11-21T00:51:01;99746.03;;;8.95;100.00
24558;BME280;12726;49.148;8.582;2023-11-21T00:53:47;99743.94;;;8.97;100.00
24558;BME280;12726;49.148;8.582;2023-11-21T00:56:33;99738.84;;;8.89;100.00
24558;BME280;12726;49.148;8.582;2023-11-21T00:59:20;99743.13;;;8.97;100.00
24558;BME280;12726;49.148;8.582;2023-11-21T01:02:07;99739.09;;;8.88;100.00
24558;BME280;12726;49.148;8.582;2023-11-21T01:04:54;99737.81;;;8.90;100.00
24558;BME280;12726;49.148;8.582;2023-11-21T01:07:40;99740.34;;;8.85;100.00
24558;BME280;12726;49.148;8.582;2023-11-21T01:10:25;99749.78;;;8.94;100.00
24558;BME280;12726;49.148;8.582;2023-11-21T01:13:10;99750.81;;;8.93;100.00
24558;BME280;12726;49.148;8.582;2023-11-21T01:15:57;99750.59;;;8.95;100.00
24558;BME280;12726;49.148;8.582;2023-11-21T01:18:43;99750.41;;;8.90;100.00
24558;BME280;12726;49.148;8.582;2023-11-21T01:21:28;99747.91;;;8.95;100.00
24558;BME280;12726;49.148;8.582;2023-11-21T01:24:14;99750.97;;;8.98;100.00
24558;BME280;12726;49.148;8.582;2023-11-21T01:27:00;99742.69;;;9.00;100.00
24558;BME280;12726;49.148;8.582;2023-11-21T01:29:45;99754.06;;;8.95;100.00
24558;BME280;12726;49.148;8.582;2023-11-21T01:32:32;99751.53;;;9.07;100.00
24558;BME280;12726;49.148;8.582;2023-11-21T01:35:17;99748.03;;;9.07;100.00
24558;BME280;12726;49.148;8.582;2023-11-21T01:38:03;99753.59;;;9.05;100.00
24558;BME280;12726;49.148;8.582;2023-11-21T01:40:49;99752.56;;;9.06;100.00
24558;BME280;12726;49.148;8.582;2023-11-21T01:43:34;99755.03;;;9.08;100.00
24558;BME280;12726;49.148;8.582;2023-11-21T01:46:21;99760.97;;;9.16;100.00
24558;BME280;12726;49.148;8.582;2023-11-21T01:49:09;99756.69;;;9.09;100.00
24558;BME280;12726;49.148;8.582;2023-11-21T01:51:57;99755.81;;;9.15;100.00
24558;BME280;12726;49.148;8.582;2023-11-21T01:54:42;99754.00;;;9.09;100.00
24558;BME280;12726;49.148;8.582;2023-11-21T01:57:27;99760.34;;;9.14;100.00
24558;BME280;12726;49.148;8.582;2023-11-21T02:00:14;99761.00;;;9.10;100.00
24558;BME280;12726;49.148;8.582;2023-11-21T02:03:03;99762.81;;;9.16;100.00
24558;BME280;12726;49.148;8.582;2023-11-21T02:05:50;99756.84;;;9.14;100.00
24558;BME280;12726;49.148;8.582;2023-11-21T02:08:36;99750.81;;;9.18;100.00
24558;BME280;12726;49.148;8.582;2023-11-21T02:11:22;99759.06;;;9.17;100.00
24558;BME280;12726;49.148;8.582;2023-11-21T02:14:08;99759.06;;;9.17;100.00
24558;BME280;12726;49.148;8.582;2023-11-21T02:16:55;99757.50;;;9.09;100.00
24558;BME280;12726;49.148;8.582;2023-11-21T02:19:44;99755.91;;;9.01;100.00
24558;BME280;12726;49.148;8.582;2023-11-21T02:22:35;99760.00;;;9.04;100.00
24558;BME280;12726;49.148;8.582;2023-11-21T02:25:25;99764.56;;;9.03;100.00
24558;BME280;12726;49.148;8.582;2023-11-21T02:28:11;99758.03;;;8.93;100.00
24558;BME280;12726;49.148;8.582;2023-11-21T02:30:59;99758.25;;;8.91;100.00
24558;BME280;12726;49.148;8.582;2023-11-21T02:33:44;99760.25;;;8.96;100.00
24558;BME280;12726;49.148;8.582;2023-11-21T02:36:30;99757.22;;;8.92;100.00
24558;BME280;12726;49.148;8.582;2023-11-21T02:39:15;99756.19;;;8.93;100.00
24558;BME280;12726;49.148;8.582;2023-11-21T02:42:02;99751.22;;;8.90;100.00
24558;BME280;12726;49.148;8.582;2023-11-21T02:44:47;99752.47;;;8.94;100.00
24558;BME280;12726;49.148;8.582;2023-11-21T02:47:33;99750.19;;;8.91;100.00
24558;BME280;12726;49.148;8.582;2023-11-21T02:50:18;99750.59;;;8.95;100.00
24558;BME280;12726;49.148;8.582;2023-11-21T02:53:04;99747.72;;;8.90;100.00
24558;BME280;12726;49.148;8.582;2023-11-21T02:55:50;99756.44;;;8.85;100.00
24558;BME280;12726;49.148;8.582;2023-11-21T02:58:37;99753.31;;;8.88;100.00
24558;BME280;12726;49.148;8.582;2023-11-21T03:01:22;99755.44;;;8.80;100.00
24558;BME280;12726;49.148;8.582;2023-11-21T03:04:09;99750.72;;;8.75;100.00
24558;BME280;12726;49.148;8.582;2023-11-21T03:06:54;99750.50;;;8.77;100.00
24558;BME280;12726;49.148;8.582;2023-11-21T03:09:39;99747.44;;;8.73;100.00
24558;BME280;12726;49.148;8.582;2023-11-21T03:12:25;99748.25;;;8.74;100.00
24558;BME280;12726;49.148;8.582;2023-11-21T03:15:11;99744.81;;;8.67;100.00
24558;BME280;12726;49.148;8.582;2023-11-21T03:17:57;99741.00;;;8.74;100.00
24558;BME280;12726;49.148;8.582;2023-11-21T03:20:43;99747.50;;;8.67;100.00
24558;BME280;12726;49.148;8.582;2023-11-21T03:23:30;99754.31;;;8.62;100.00
24558;BME280;12726;49.148;8.582;2023-11-21T03:26:15;99746.88;;;8.64;100.00
24558;BME280;12726;49.148;8.582;2023-11-21T03:29:00;99748.31;;;8.60;100.00
24558;BME280;12726;49.148;8.582;2023-11-21T03:31:47;99748.78;;;8.57;100.00
24558;BME280;12726;49.148;8.582;2023-11-21T03:34:33;99751.81;;;8.61;100.00
24558;BME280;12726;49.148;8.582;2023-11-21T03:37:18;99744.59;;;8.61;100.00
24558;BME280;12726;49.148;8.582;2023-11-21T03:40:06;99752.66;;;8.61;100.00
24558;BME280;12726;49.148;8.582;2023-11-21T03:42:52;99748.31;;;8.60;100.00
24558;BME280;12726;49.148;8.582;2023-11-21T03:45:37;99748.13;;;8.62;100.00
24558;BME280;12726;49.148;8.582;2023-11-21T03:48:26;99748.94;;;8.62;100.00
24558;BME280;12726;49.148;8.582;2023-11-21T03:51:14;99754.13;;;8.57;100.00
24558;BME280;12726;49.148;8.582;2023-11-21T03:53:59;99751.44;;;8.57;100.00
24558;BME280;12726;49.148;8.582;2023-11-21T03:56:45;99752.69;;;8.55;100.00
24558;BME280;12726;49.148;8.582;2023-11-21T03:59:30;99758.28;;;8.53;100.00
24558;BME280;12726;49.148;8.582;2023-11-21T04:02:15;99762.00;;;8.52;100.00
24558;BME280;12726;49.148;8.582;2023-11-21T04:05:02;99765.50;;;8.53;100.00
24558;BME280;12726;49.148;8.582;2023-11-21T04:07:49;99771.69;;;8.53;100.00
24558;BME280;12726;49.148;8.582;2023-11-21T04:10:35;99767.97;;;8.54;100.00
24558;BME280;12726;49.148;8.582;2023-11-21T04:13:20;99775.84;;;8.49;100.00
24558;BME280;12726;49.148;8.582;2023-11-21T04:16:06;99783.28;;;8.47;100.00
24558;BME280;12726;49.148;8.582;2023-11-21T04:18:52;99777.88;;;8.54;100.00
24558;BME280;12726;49.148;8.582;2023-11-21T04:21:38;99778.53;;;8.49;100.00
24558;BME280;12726;49.148;8.582;2023-11-21T04:24:23;99786.38;;;8.51;100.00
24558;BME280;12726;49.148;8.582;2023-11-21T04:27:08;99779.78;;;8.47;100.00
24558;BME280;12726;49.148;8.582;2023-11-21T04:29:54;99780.59;;;8.47;100.00
24558;BME280;12726;49.148;8.582;2023-11-21T04:32:39;99782.66;;;8.52;100.00
24558;BME280;12726;49.148;8.582;2023-11-21T04:35:25;99779.16;;;8.51;100.00
24558;BME280;12726;49.148;8.582;2023-11-21T04:38:14;99781.41;;;8.48;100.00
24558;BME280;12726;49.148;8.582;2023-11-21T04:41:00;99790.47;;;8.53;100.00
24558;BME280;12726;49.148;8.582;2023-11-21T04:43:45;99786.16;;;8.52;100.00
24558;BME280;12726;49.148;8.582;2023-11-21T04:46:30;99787.78;;;8.53;100.00
24558;BME280;12726;49.148;8.582;2023-11-21T04:49:16;99787.16;;;8.58;100.00
24558;BME280;12726;49.148;8.582;2023-11-21T04:52:01;99791.53;;;8.52;100.00
24558;BME280;12726;49.148;8.582;2023-11-21T04:54:48;99798.34;;;8.48;100.00
24558;BME280;12726;49.148;8.582;2023-11-21T04:57:34;99799.56;;;8.46;100.00
24558;BME280;12726;49.148;8.582;2023-11-21T05:00:19;99809.31;;;8.40;100.00
24558;BME280;12726;49.148;8.582;2023-11-21T05:03:06;99808.03;;;8.49;100.00
24558;BME280;12726;49.148;8.582;2023-11-21T05:05:51;99798.31;;;8.55;100.00
24558;BME280;12726;49.148;8.582;2023-11-21T05:08:37;99813.81;;;8.46;100.00
24558;BME280;12726;49.148;8.582;2023-11-21T05:11:28;99814.25;;;8.43;100.00
24558;BME280;12726;49.148;8.582;2023-11-21T05:14:13;99809.09;;;8.42;100.00
24558;BME280;12726;49.148;8.582;2023-11-21T05:16:59;99813.22;;;8.44;100.00
24558;BME280;12726;49.148;8.582;2023-11-21T05:19:44;99809.31;;;8.40;100.00
24558;BME280;12726;49.148;8.582;2023-11-21T05:22:32;99819.66;;;8.37;100.00
24558;BME280;12726;49.148;8.582;2023-11-21T05:25:17;99825.41;;;8.40;100.00
24558;BME280;12726;49.148;8.582;2023-11-21T05:28:04;99823.53;;;8.41;100.00
24558;BME280;12726;49.148;8.582;2023-11-21T05:30:50;99830.19;;;8.38;100.00
24558;BME280;12726;49.148;8.582;2023-11-21T05:33:37;99830.38;;;8.37;100.00
24558;BME280;12726;49.148;8.582;2023-11-21T05:36:23;99833.88;;;8.44;100.00
24558;BME280;12726;49.148;8.582;2023-11-21T05:39:08;99845.81;;;8.41;100.00
24558;BME280;12726;49.148;8.582;2023-11-21T05:41:55;99842.94;;;8.43;100.00
24558;BME280;12726;49.148;8.582;2023-11-21T05:44:43;99843.34;;;8.40;100.00
24558;BME280;12726;49.148;8.582;2023-11-21T05:47:28;99847.06;;;8.45;100.00
24558;BME280;12726;49.148;8.582;2023-11-21T05:50:16;99851.41;;;8.40;100.00
24558;BME280;12726;49.148;8.582;2023-11-21T05:53:02;99854.06;;;8.40;100.00
24558;BME280;12726;49.148;8.582;2023-11-21T05:55:47;99860.25;;;8.47;100.00
24558;BME280;12726;49.148;8.582;2023-11-21T05:58:32;99862.50;;;8.50;100.00
24558;BME280;12726;49.148;8.582;2023-11-21T06:01:40;99866.44;;;8.47;100.00
24558;BME280;12726;49.148;8.582;2023-11-21T06:04:27;99859.66;;;8.45;100.00
24558;BME280;12726;49.148;8.582;2023-11-21T06:07:12;99865.41;;;8.48;100.00
24558;BME280;12726;49.148;8.582;2023-11-21T06:09:58;99869.13;;;8.47;100.00
24558;BME280;12726;49.148;8.582;2023-11-21T06:12:46;99879.63;;;8.49;100.00
24558;BME280;12726;49.148;8.582;2023-11-21T06:15:31;99879.69;;;8.36;100.00
24558;BME280;12726;49.148;8.582;2023-11-21T06:18:18;99888.75;;;8.35;100.00
24558;BME280;12726;49.148;8.582;2023-11-21T06:21:04;99888.38;;;8.31;100.00
24558;BME280;12726;49.148;8.582;2023-11-21T06:23:50;99899.28;;;8.30;100.00
24558;BME280;12726;49.148;8.582;2023-11-21T06:26:36;99895.97;;;8.27;100.00
24558;BME280;12726;49.148;8.582;2023-11-21T06:29:22;99901.13;;;8.29;100.00
24558;BME280;12726;49.148;8.582;2023-11-21T06:32:08;99898.25;;;8.37;100.00
24558;BME280;12726;49.148;8.582;2023-11-21T06:34:55;99892.66;;;8.45;100.00
24558;BME280;12726;49.148;8.582;2023-11-21T06:37:42;99905.28;;;8.38;100.00
24558;BME280;12726;49.148;8.582;2023-11-21T06:40:31;99906.50;;;8.42;100.00
24558;BME280;12726;49.148;8.582;2023-11-21T06:43:17;99908.16;;;8.37;100.00
24558;BME280;12726;49.148;8.582;2023-11-21T06:46:03;99913.94;;;8.34;100.00
24558;BME280;12726;49.148;8.582;2023-11-21T06:48:48;99913.31;;;8.32;100.00
24558;BME280;12726;49.148;8.582;2023-11-21T06:51:36;99910.41;;;8.26;100.00
24558;BME280;12726;49.148;8.582;2023-11-21T06:54:21;99915.19;;;8.31;100.00
24558;BME280;12726;49.148;8.582;2023-11-21T06:57:06;99920.56;;;8.31;100.00
24558;BME280;12726;49.148;8.582;2023-11-21T06:59:52;99928.38;;;8.33;100.00
24558;BME280;12726;49.148;8.582;2023-11-21T07:02:45;99929.19;;;8.33;100.00
24558;BME280;12726;49.148;8.582;2023-11-21T07:05:30;99930.44;;;8.37;100.00
24558;BME280;12726;49.148;8.582;2023-11-21T07:08:18;99937.47;;;8.38;100.00
24558;BME280;12726;49.148;8.582;2023-11-21T07:11:04;99934.38;;;8.35;100.00
24558;BME280;12726;49.148;8.582;2023-11-21T07:13:49;99939.94;;;8.33;100.00
24558;BME280;12726;49.148;8.582;2023-11-21T07:16:34;99933.75;;;8.33;100.00
24558;BME280;12726;49.148;8.582;2023-11-21T07:19:21;99944.47;;;8.33;100.00
24558;BME280;12726;49.148;8.582;2023-11-21T07:22:06;99949.63;;;8.34;100.00
24558;BME280;12726;49.148;8.582;2023-11-21T07:24:53;99954.78;;;8.36;100.00
24558;BME280;12726;49.148;8.582;2023-11-21T07:27:40;99964.50;;;8.37;100.00
24558;BME280;12726;49.148;8.582;2023-11-21T07:30:25;99962.63;;;8.37;100.00
24558;BME280;12726;49.148;8.582;2023-11-21T07:33:11;99973.13;;;8.39;100.00
24558;BME280;12726;49.148;8.582;2023-11-21T07:35:56;99972.34;;;8.38;100.00
24558;BME280;12726;49.148;8.582;2023-11-21T07:38:42;99977.25;;;8.41;100.00
24558;BME280;12726;49.148;8.582;2023-11-21T07:41:28;99979.94;;;8.41;100.00
24558;BME280;12726;49.148;8.582;2023-11-21T07:44:15;99978.72;;;8.44;100.00
24558;BME280;12726;49.148;8.582;2023-11-21T07:47:01;99981.59;;;8.42;100.00
24558;BME280;12726;49.148;8.582;2023-11-21T07:49:46;99991.94;;;8.45;100.00
24558;BME280;12726;49.148;8.582;2023-11-21T07:52:32;99991.50;;;8.48;100.00
24558;BME280;12726;49.148;8.582;2023-11-21T07:55:17;99992.31;;;8.49;100.00
24558;BME280;12726;49.148;8.582;2023-11-21T07:58:04;99977.03;;;8.49;100.00
24558;BME280;12726;49.148;8.582;2023-11-21T08:00:50;99988.41;;;8.51;100.00
24558;BME280;12726;49.148;8.582;2023-11-21T08:03:36;99991.91;;;8.52;100.00
24558;BME280;12726;49.148;8.582;2023-11-21T08:06:21;99995.19;;;8.54;100.00
24558;BME280;12726;49.148;8.582;2023-11-21T08:09:07;99992.31;;;8.55;100.00
24558;BME280;12726;49.148;8.582;2023-11-21T08:11:53;99993.75;;;8.58;100.00
24558;BME280;12726;49.148;8.582;2023-11-21T08:14:39;100000.53;;;8.67;100.00
24558;BME280;12726;49.148;8.582;2023-11-21T08:17:25;99996.78;;;8.75;100.00
24558;BME280;12726;49.148;8.582;2023-11-21T08:20:11;99995.16;;;8.80;100.00
24558;BME280;12726;49.148;8.582;2023-11-21T08:22:56;100003.19;;;8.87;100.00
24558;BME280;12726;49.148;8.582;2023-11-21T08:25:43;100003.19;;;8.80;100.00
24558;BME280;12726;49.148;8.582;2023-11-21T08:28:28;100016.16;;;8.90;100.00
24558;BME280;12726;49.148;8.582;2023-11-21T08:31:15;100022.97;;;8.92;100.00
24558;BME280;12726;49.148;8.582;2023-11-21T08:34:01;100023.81;;;8.93;100.00
24558;BME280;12726;49.148;8.582;2023-11-21T08:36:47;100023.81;;;8.93;100.00
24558;BME280;12726;49.148;8.582;2023-11-21T08:39:32;100024.19;;;8.96;100.00
24558;BME280;12726;49.148;8.582;2023-11-21T08:42:17;100030.19;;;8.98;100.00
24558;BME280;12726;49.148;8.582;2023-11-21T08:45:03;100031.00;;;8.99;100.00
24558;BME280;12726;49.148;8.582;2023-11-21T08:47:51;100042.59;;;8.99;100.00
24558;BME280;12726;49.148;8.582;2023-11-21T08:50:36;100033.06;;;8.97;100.00
24558;BME280;12726;49.148;8.582;2023-11-21T08:53:22;100038.25;;;8.98;100.00
24558;BME280;12726;49.148;8.582;2023-11-21T08:56:08;100038.25;;;8.92;100.00
24558;BME280;12726;49.148;8.582;2023-11-21T08:58:56;100039.72;;;8.94;100.00
24558;BME280;12726;49.148;8.582;2023-11-21T09:01:42;100046.13;;;8.93;100.00
24558;BME280;12726;49.148;8.582;2023-11-21T09:04:29;100042.41;;;8.94;100.00
24558;BME280;12726;49.148;8.582;2023-11-21T09:07:14;100040.53;;;8.95;100.00
24558;BME280;12726;49.148;8.582;2023-11-21T09:09:59;100039.09;;;8.92;100.00
24558;BME280;12726;49.148;8.582;2023-11-21T09:12:45;100048.78;;;8.93;100.00
24558;BME280;12726;49.148;8.582;2023-11-21T09:15:30;100046.13;;;8.93;100.00
24558;BME280;12726;49.148;8.582;2023-11-21T09:18:15;100055.81;;;8.94;100.00
24558;BME280;12726;49.148;8.582;2023-11-21T09:21:02;100060.97;;;8.96;100.00
24558;BME280;12726;49.148;8.582;2023-11-21T09:23:48;100060.56;;;8.92;100.00
24558;BME280;12726;49.148;8.582;2023-11-21T09:26:33;100064.28;;;8.91;100.00
24558;BME280;12726;49.148;8.582;2023-11-21T09:29:18;100067.16;;;8.90;100.00
24558;BME280;12726;49.148;8.582;2023-11-21T09:32:04;100068.63;;;8.92;100.00
24558;BME280;12726;49.148;8.582;2023-11-21T09:34:50;100078.91;;;8.95;100.00
24558;BME280;12726;49.148;8.582;2023-11-21T09:37:37;100084.72;;;8.99;100.00
24558;BME280;12726;49.148;8.582;2023-11-21T09:40:22;100082.66;;;9.01;100.00
24558;BME280;12726;49.148;8.582;2023-11-21T09:43:11;100096.25;;;9.06;100.00
24558;BME280;12726;49.148;8.582;2023-11-21T09:46:03;100097.72;;;9.09;100.00
24558;BME280;12726;49.148;8.582;2023-11-21T09:48:55;100090.25;;;9.11;100.00
24558;BME280;12726;49.148;8.582;2023-11-21T09:51:42;100094.38;;;9.13;100.00
24558;BME280;12726;49.148;8.582;2023-11-21T09:54:30;100100.16;;;9.17;100.00
24558;BME280;12726;49.148;8.582;2023-11-21T09:57:17;100105.72;;;9.22;100.00
24558;BME280;12726;49.148;8.582;2023-11-21T10:00:03;100113.97;;;9.27;100.00
24558;BME280;12726;49.148;8.582;2023-11-21T10:02:57;100108.19;;;9.30;100.00
24558;BME280;12726;49.148;8.582;2023-11-21T10:05:44;100107.13;;;9.31;100.00
24558;BME280;12726;49.148;8.582;2023-11-21T10:08:44;100107.38;;;9.29;100.00
24558;BME280;12726;49.148;8.582;2023-11-21T10:11:31;100110.66;;;9.31;100.00
24558;BME280;12726;49.148;8.582;2023-11-21T10:14:19;100112.91;;;9.34;100.00
24558;BME280;12726;49.148;8.582;2023-11-21T10:17:07;100106.91;;;9.39;100.00
24558;BME280;12726;49.148;8.582;2023-11-21T10:19:54;100110.22;;;9.41;100.00
24558;BME280;12726;49.148;8.582;2023-11-21T10:22:40;100114.09;;;9.45;100.00
24558;BME280;12726;49.148;8.582;2023-11-21T10:25:27;100113.28;;;9.51;100.00
24558;BME280;12726;49.148;8.582;2023-11-21T10:28:14;100110.38;;;9.53;100.00
24558;BME280;12726;49.148;8.582;2023-11-21T10:31:01;100107.06;;;9.57;100.00
24558;BME280;12726;49.148;8.582;2023-11-21T10:33:46;100114.28;;;9.57;100.00
24558;BME280;12726;49.148;8.582;2023-11-21T10:36:32;100106.22;;;9.57;100.00
24558;BME280;12726;49.148;8.582;2023-11-21T10:39:20;100107.84;;;9.64;100.00
24558;BME280;12726;49.148;8.582;2023-11-21T10:42:08;100114.66;;;9.67;100.00
24558;BME280;12726;49.148;8.582;2023-11-21T10:44:57;100114.19;;;9.76;100.00
24558;BME280;12726;49.148;8.582;2023-11-21T10:47:44;100116.44;;;9.86;100.00
24558;BME280;12726;49.148;8.582;2023-11-21T10:50:29;100116.59;;;9.91;100.00
24558;BME280;12726;49.148;8.582;2023-11-21T10:53:15;100117.59;;;9.97;100.00
24558;BME280;12726;49.148;8.582;2023-11-21T10:56:06;100128.78;;;10.00;100.00
24558;BME280;12726;49.148;8.582;2023-11-21T10:58:54;100124.22;;;10.01;100.00
24558;BME280;12726;49.148;8.582;2023-11-21T11:01:42;100128.94;;;10.05;100.00
24558;BME280;12726;49.148;8.582;2023-11-21T11:04:30;100126.66;;;10.02;100.00
24558;BME280;12726;49.148;8.582;2023-11-21T11:07:16;100135.19;;;9.99;100.00
24558;BME280;12726;49.148;8.582;2023-11-21T11:10:02;100137.09;;;9.92;100.00
24558;BME280;12726;49.148;8.582;2023-11-21T11:12:48;100140.41;;;9.88;100.00
24558;BME280;12726;49.148;8.582;2023-11-21T11:15:33;100136.25;;;9.92;100.00
24558;BME280;12726;49.148;8.582;2023-11-21T11:18:24;100136.91;;;9.87;100.00
24558;BME280;12726;49.148;8.582;2023-11-21T11:21:17;100145.56;;;9.89;100.00
24558;BME280;12726;49.148;8.582;2023-11-21T11:24:17;100142.69;;;9.84;100.00
24558;BME280;12726;49.148;8.582;2023-11-21T11:27:11;100146.47;;;9.76;100.00
24558;BME280;12726;49.148;8.582;2023-11-21T11:30:09;100140.06;;;9.71;100.00
24558;BME280;12726;49.148;8.582;2023-11-21T11:33:04;100141.31;;;9.68;100.00
24558;BME280;12726;49.148;8.582;2023-11-21T11:35:57;100143.59;;;9.71;100.00
24558;BME280;12726;49.148;8.582;2023-11-21T11:38:46;100141.72;;;9.72;100.00
24558;BME280;12726;49.148;8.582;2023-11-21T11:41:34;100147.69;;;9.74;100.00
24558;BME280;12726;49.148;8.582;2023-11-21T11:44:47;100149.56;;;9.80;100.00
24558;BME280;12726;49.148;8.582;2023-11-21T11:47:35;100156.41;;;9.69;100.00
24558;BME280;12726;49.148;8.582;2023-11-21T11:50:21;100152.47;;;9.78;100.00
24558;BME280;12726;49.148;8.582;2023-11-21T11:53:14;100153.47;;;9.84;100.00
24558;BME280;12726;49.148;8.582;2023-11-21T11:56:20;100162.75;;;9.81;100.00
24558;BME280;12726;49.148;8.582;2023-11-21T11:59:06;100155.16;;;9.78;100.00
24558;BME280;12726;49.148;8.582;2023-11-21T12:01:56;100154.72;;;9.75;100.00
24558;BME280;12726;49.148;8.582;2023-11-21T12:04:42;100158.25;;;9.75;100.00
24558;BME280;12726;49.148;8.582;2023-11-21T12:07:41;100149.56;;;9.73;100.00
24558;BME280;12726;49.148;8.582;2023-11-21T12:10:29;100157.63;;;9.80;100.00
24558;BME280;12726;49.148;8.582;2023-11-21T12:13:15;100159.03;;;9.82;100.00
24558;BME280;12726;49.148;8.582;2023-11-21T12:16:01;100161.06;;;9.94;100.00
24558;BME280;12726;49.148;8.582;2023-11-21T12:18:46;100163.03;;;10.11;100.00
24558;BME280;12726;49.148;8.582;2023-11-21T12:21:32;100166.50;;;10.25;100.00
24558;BME280;12726;49.148;8.582;2023-11-21T12:24:18;100175.16;;;10.34;100.00
24558;BME280;12726;49.148;8.582;2023-11-21T12:27:05;100167.19;;;10.45;100.00
24558;BME280;12726;49.148;8.582;2023-11-21T12:29:51;100162.78;;;10.57;100.00
24558;BME280;12726;49.148;8.582;2023-11-21T12:32:36;100148.94;;;10.54;100.00
24558;BME280;12726;49.148;8.582;2023-11-21T12:35:24;100166.84;;;10.67;100.00
24558;BME280;12726;49.148;8.582;2023-11-21T12:38:10;100178.69;;;10.66;100.00
24558;BME280;12726;49.148;8.582;2023-11-21T12:40:55;100171.44;;;10.59;100.00
24558;BME280;12726;49.148;8.582;2023-11-21T12:43:43;100183.91;;;10.54;100.00
24558;BME280;12726;49.148;8.582;2023-11-21T12:46:28;100189.19;;;10.42;100.00
24558;BME280;12726;49.148;8.582;2023-11-21T12:49:17;100189.66;;;10.33;100.00
24558;BME280;12726;49.148;8.582;2023-11-21T12:52:03;100193.00;;;10.28;100.00
24558;BME280;12726;49.148;8.582;2023-11-21T12:54:48;100197.97;;;10.25;100.00
24558;BME280;12726;49.148;8.582;2023-11-21T12:57:34;100198.38;;;10.28;100.00
24558;BME280;12726;49.148;8.582;2023-11-21T13:00:31;100201.03;;;10.35;100.00
24558;BME280;12726;49.148;8.582;2023-11-21T13:03:21;100199.78;;;10.37;100.00
24558;BME280;12726;49.148;8.582;2023-11-21T13:06:09;100196.84;;;10.39;100.00
24558;BME280;12726;49.148;8.582;2023-11-21T13:08:59;100195.81;;;10.40;100.00
24558;BME280;12726;49.148;8.582;2023-11-21T13:11:44;100205.41;;;10.29;100.00
24558;BME280;12726;49.148;8.582;2023-11-21T13:14:30;100213.44;;;10.36;100.00
24558;BME280;12726;49.148;8.582;2023-11-21T13:17:17;100213.66;;;10.34;100.00
24558;BME280;12726;49.148;8.582;2023-11-21T13:20:04;100219.66;;;10.36;100.00
24558;BME280;12726;49.148;8.582;2023-11-21T13:22:54;100212.63;;;10.35;100.00
24558;BME280;12726;49.148;8.582;2023-11-21T13:25:41;100212.22;;;10.32;100.00
24558;BME280;12726;49.148;8.582;2023-11-21T13:28:26;100220.25;;;10.38;100.00
24558;BME280;12726;49.148;8.582;2023-11-21T13:31:18;100214.22;;;10.43;100.00
24558;BME280;12726;49.148;8.582;2023-11-21T13:34:19;100214.41;;;10.48;100.00
24558;BME280;12726;49.148;8.582;2023-11-21T13:38:33;100227.00;;;10.54;100.00
24558;BME280;12726;49.148;8.582;2023-11-21T13:40:55;100227.41;;;10.57;100.00
24558;BME280;12726;49.148;8.582;2023-11-21T13:43:51;100221.59;;;10.54;100.00
24558;BME280;12726;49.148;8.582;2023-11-21T13:46:54;100226.78;;;10.55;100.00
24558;BME280;12726;49.148;8.582;2023-11-21T13:53:17;100222.91;;;10.76;100.00
24558;BME280;12726;49.148;8.582;2023-11-21T13:56:14;100227.03;;;10.79;100.00
24558;BME280;12726;49.148;8.582;2023-11-21T13:59:18;100219.06;;;10.90;100.00
24558;BME280;12726;49.148;8.582;2023-11-21T14:02:22;100231.09;;;10.88;100.00
24558;BME280;12726;49.148;8.582;2023-11-21T14:05:20;100222.19;;;10.87;100.00
24558;BME280;12726;49.148;8.582;2023-11-21T14:08:22;100243.31;;;10.90;100.00
24558;BME280;12726;49.148;8.582;2023-11-21T14:11:12;100243.94;;;10.92;100.00
24558;BME280;12726;49.148;8.582;2023-11-21T14:14:02;100245.81;;;10.92;100.00
24558;BME280;12726;49.148;8.582;2023-11-21T14:16:49;100248.72;;;10.90;100.00
24558;BME280;12726;49.148;8.582;2023-11-21T14:19:35;100260.31;;;10.91;100.00
24558;BME280;12726;49.148;8.582;2023-11-21T14:22:25;100254.50;;;10.87;100.00
24558;BME280;12726;49.148;8.582;2023-11-21T14:25:10;100274.03;;;10.83;100.00
24558;BME280;12726;49.148;8.582;2023-11-21T14:27:56;100275.97;;;10.69;100.00
24558;BME280;12726;49.148;8.582;2023-11-21T14:30:41;100276.44;;;10.59;100.00
24558;BME280;12726;49.148;8.582;2023-11-21T14:33:26;100283.72;;;10.52;100.00
24558;BME280;12726;49.148;8.582;2023-11-21T14:36:12;100282.38;;;10.37;100.00
24558;BME280;12726;49.148;8.582;2023-11-21T14:38:59;100281.56;;;10.23;100.00
24558;BME280;12726;49.148;8.582;2023-11-21T14:41:44;100285.94;;;10.11;100.00
24558;BME280;12726;49.148;8.582;2023-11-21T14:44:29;100289.50;;;10.05;100.00